Strona główna
METAR-TAF:

METAR-TAF

Lotnisko :

Port lotniczy Mitiga

Trypolis, Libia

Szerokość geograficzna: 32-54N, Długość geograficzna: 13-17E, wysokość: 11 m

Aktualna obserwacja pogody

Raport powstał 48 minut temu, godzina 06:50 UTC
Wiatr 4 kt od północny zachód
Temperatura 24°C
Wilgotność 69%
Ciśnienie 1017 hPa
Widzialność: 8000 m
Przerywane chmury na wysokości 2500 ft

METAR: HLLM 180650Z 32004KT 8000 BKN025 24/18 Q1017

czas: 09:38 (07:38 UTC)

Prognoza

Raport powstał 2 godziny i 38 minut temu, godzina 05:00 UTC
Prognoza ważna od 18 godzina 06 UTC do 19 godzina 06 UTC
Wiatr 10 kt od północno-północny zachód
Widzialność 10 km lub więcej
Mało chmury na wysokości 3000 ft
Rozproszone chmury na wysokości 8000 ft

TAF: HLLM 180500Z 1806/1906 33010KT 9999 FEW030 SCT080

Obserwacja i prognoza pogody dla ponad 4000 lotnisk (raport METAR i TAF).

Dostępne stacje oznaczono żółtymi i czerwonymi punktami na mapie.

Najedź kursorem aby zobaczyć nazwę stacji.

Kliknij aby zobaczyć obserwacje i prognozy pogody.

Aby zmienić mapę: kliknij na zielony przycisk z czarnym krzyżykiem, aby powiększyć; na zielony przycisk z myślnikiem, aby pomniejszyć; na zielone strzałki, aby przejść do map sąsiednich.


METAR-TAF: